LCEN Airport Information

Runway Information
Runway 11 Length 9039 ft width 148 ft
Elevation 402 ft Threshold 0 ft Heading 107
Runway 29 Length 9039 ft Width 148 ft
Elevation 402 ft Threshold 0 ft Heading 287
Airport Frequencies
Type Enroute Name Ercan Rada Frequency 126.7 MHZ
Type Ercan Appr Name Frequency 126.9 MHZ
Type Ercan Atis Name Frequency 118.35 MHZ
Type Ercan Towe Name Frequency 120.2 MHZ
Airport Navaids
Airport Weather Information & NOTAM
ADDS - METARS form results

(1959 UTC 23 April 2019)
Data provider http://aviationweather.gov/metar/data/
 
METAR text: LCEN 231920Z 00000KT 9999 FEW025 13/09 Q1025 NOSIG RMK RWY11 00000KT
Conditions at: LCEN (ERCAN , CY) observed 1920 UTC 23 April 2019
Temperature: 13.0°C (55°F)
Dewpoint: 9.0°C (48°F) [RH = 77%]
Pressure (altimeter): 30.27 inches Hg (1025.0 mb)
Winds: calm
Visibility: 6 or more miles (10+ km)
Ceiling: at least 12,000 feet AGL
Clouds: few clouds at 2500 feet AGL
Weather: no significant weather observed at this time

Forecast for: LCEN (ERCAN , CY)
Text: TAF LCEN 231640Z 2318/2418 30012KT 9999 FEW025
Forecast period: 1800 UTC 23 April 2019 to 1800 UTC 24 April 2019
Forecast type: FROM: standard forecast or significant change
Winds: from the WNW (300 degrees) at 14 MPH (12 knots; 6.2 m/s)
Visibility: 6 or more miles 10+ km)
Ceiling: at least 12,000 feet AGL
Clouds: few clouds at 2500 feet AGL
Weather: no significant weather forecast for this period